Terminal Aerodrome Forecast
Issued by NWS Mobile, AL

Home | Current Version | Previous Version | Text Only | Print | Product List | Glossary On
Versions: 1 2 3 4 5 6 7 8 9 10 11 12
000
FTUS44 KMOB 231737
TAFPNS
TAF
KPNS 231737Z 2318/2418 36004KT P6SM VCTS FEW030CB
      TEMPO 2319/2323 5SM TSRA BKN030CB
     FM240300 00000KT P6SM SCT250
     FM241500 07006KT P6SM FEW250=

USA.gov is the U.S. government's official web portal to all federal, state and local government web resources and services.